sensor_id;sensor_type;location;lat;lon;timestamp;P1;durP1;ratioP1;P2;durP2;ratioP2
57858;SDS011;49153;45.568;11.894;2023-01-09T00:01:13;13.93;;;7.50;;
57858;SDS011;49153;45.568;11.894;2023-01-09T00:03:42;11.57;;;7.53;;
57858;SDS011;49153;45.568;11.894;2023-01-09T00:06:08;9.95;;;7.25;;
57858;SDS011;49153;45.568;11.894;2023-01-09T00:08:33;10.45;;;6.68;;
57858;SDS011;49153;45.568;11.894;2023-01-09T00:10:59;11.15;;;6.88;;
57858;SDS011;49153;45.568;11.894;2023-01-09T00:13:25;11.32;;;6.72;;
57858;SDS011;49153;45.568;11.894;2023-01-09T00:15:50;11.73;;;6.63;;
57858;SDS011;49153;45.568;11.894;2023-01-09T00:18:16;11.38;;;7.00;;
57858;SDS011;49153;45.568;11.894;2023-01-09T00:20:41;11.65;;;7.25;;
57858;SDS011;49153;45.568;11.894;2023-01-09T00:23:07;11.07;;;7.40;;
57858;SDS011;49153;45.568;11.894;2023-01-09T00:25:32;17.15;;;9.63;;
57858;SDS011;49153;45.568;11.894;2023-01-09T00:27:58;11.73;;;7.38;;
57858;SDS011;49153;45.568;11.894;2023-01-09T00:30:23;17.35;;;9.77;;
57858;SDS011;49153;45.568;11.894;2023-01-09T00:32:49;16.20;;;9.93;;
57858;SDS011;49153;45.568;11.894;2023-01-09T00:35:15;15.38;;;9.07;;
57858;SDS011;49153;45.568;11.894;2023-01-09T00:37:42;14.55;;;8.57;;
57858;SDS011;49153;45.568;11.894;2023-01-09T00:40:08;14.77;;;8.77;;
57858;SDS011;49153;45.568;11.894;2023-01-09T00:42:34;15.32;;;8.80;;
57858;SDS011;49153;45.568;11.894;2023-01-09T00:45:01;14.02;;;8.40;;
57858;SDS011;49153;45.568;11.894;2023-01-09T00:47:32;15.73;;;8.40;;
57858;SDS011;49153;45.568;11.894;2023-01-09T00:50:02;9.88;;;6.50;;
57858;SDS011;49153;45.568;11.894;2023-01-09T00:52:32;9.83;;;6.20;;
57858;SDS011;49153;45.568;11.894;2023-01-09T00:54:59;11.30;;;7.20;;
57858;SDS011;49153;45.568;11.894;2023-01-09T00:57:26;9.50;;;6.55;;
57858;SDS011;49153;45.568;11.894;2023-01-09T00:59:52;10.23;;;6.43;;
57858;SDS011;49153;45.568;11.894;2023-01-09T01:02:17;11.60;;;6.68;;
57858;SDS011;49153;45.568;11.894;2023-01-09T01:04:43;9.90;;;7.35;;
57858;SDS011;49153;45.568;11.894;2023-01-09T01:07:27;9.93;;;6.88;;
57858;SDS011;49153;45.568;11.894;2023-01-09T01:10:27;11.07;;;7.13;;
57858;SDS011;49153;45.568;11.894;2023-01-09T01:12:52;11.35;;;7.38;;
57858;SDS011;49153;45.568;11.894;2023-01-09T01:15:18;10.93;;;6.55;;
57858;SDS011;49153;45.568;11.894;2023-01-09T01:17:44;10.25;;;6.90;;
57858;SDS011;49153;45.568;11.894;2023-01-09T01:20:11;11.50;;;7.57;;
57858;SDS011;49153;45.568;11.894;2023-01-09T01:22:40;10.67;;;7.10;;
57858;SDS011;49153;45.568;11.894;2023-01-09T01:25:09;10.43;;;7.10;;
57858;SDS011;49153;45.568;11.894;2023-01-09T01:27:35;12.50;;;7.05;;
57858;SDS011;49153;45.568;11.894;2023-01-09T01:30:01;11.35;;;7.03;;
57858;SDS011;49153;45.568;11.894;2023-01-09T01:32:27;9.75;;;6.57;;
57858;SDS011;49153;45.568;11.894;2023-01-09T01:34:52;10.88;;;6.88;;
57858;SDS011;49153;45.568;11.894;2023-01-09T01:37:18;10.23;;;6.70;;
57858;SDS011;49153;45.568;11.894;2023-01-09T01:39:43;10.02;;;6.65;;
57858;SDS011;49153;45.568;11.894;2023-01-09T01:42:10;9.63;;;6.43;;
57858;SDS011;49153;45.568;11.894;2023-01-09T01:49:57;10.45;;;6.50;;
57858;SDS011;49153;45.568;11.894;2023-01-09T01:52:25;10.25;;;6.53;;
57858;SDS011;49153;45.568;11.894;2023-01-09T01:54:51;8.75;;;6.18;;
57858;SDS011;49153;45.568;11.894;2023-01-09T01:57:17;10.55;;;6.45;;
57858;SDS011;49153;45.568;11.894;2023-01-09T01:59:43;9.25;;;6.10;;
57858;SDS011;49153;45.568;11.894;2023-01-09T02:04:41;9.70;;;6.25;;
57858;SDS011;49153;45.568;11.894;2023-01-09T02:07:07;9.82;;;6.20;;
57858;SDS011;49153;45.568;11.894;2023-01-09T02:09:34;8.40;;;5.57;;
57858;SDS011;49153;45.568;11.894;2023-01-09T02:12:00;10.35;;;6.35;;
57858;SDS011;49153;45.568;11.894;2023-01-09T02:14:39;8.68;;;5.90;;
57858;SDS011;49153;45.568;11.894;2023-01-09T02:17:28;10.27;;;6.22;;
57858;SDS011;49153;45.568;11.894;2023-01-09T02:31:09;10.63;;;5.65;;
57858;SDS011;49153;45.568;11.894;2023-01-09T02:36:30;11.15;;;5.85;;
57858;SDS011;49153;45.568;11.894;2023-01-09T02:41:52;8.25;;;5.65;;
57858;SDS011;49153;45.568;11.894;2023-01-09T02:44:31;8.20;;;5.28;;
57858;SDS011;49153;45.568;11.894;2023-01-09T02:49:26;8.13;;;5.15;;
57858;SDS011;49153;45.568;11.894;2023-01-09T02:51:53;6.63;;;4.60;;
57858;SDS011;49153;45.568;11.894;2023-01-09T02:57:27;6.80;;;4.75;;
57858;SDS011;49153;45.568;11.894;2023-01-09T03:00:14;7.20;;;4.30;;
57858;SDS011;49153;45.568;11.894;2023-01-09T03:06:23;6.45;;;4.22;;
57858;SDS011;49153;45.568;11.894;2023-01-09T03:08:59;5.53;;;4.30;;
57858;SDS011;49153;45.568;11.894;2023-01-09T03:11:29;8.23;;;4.22;;
57858;SDS011;49153;45.568;11.894;2023-01-09T03:14:04;5.72;;;3.83;;
57858;SDS011;49153;45.568;11.894;2023-01-09T03:16:35;5.68;;;4.00;;
57858;SDS011;49153;45.568;11.894;2023-01-09T03:19:03;7.40;;;3.60;;
57858;SDS011;49153;45.568;11.894;2023-01-09T03:21:31;5.63;;;3.95;;
57858;SDS011;49153;45.568;11.894;2023-01-09T03:23:58;6.55;;;3.53;;
57858;SDS011;49153;45.568;11.894;2023-01-09T03:26:26;6.78;;;3.50;;
57858;SDS011;49153;45.568;11.894;2023-01-09T03:28:56;5.80;;;3.67;;
57858;SDS011;49153;45.568;11.894;2023-01-09T03:31:22;4.50;;;3.53;;
57858;SDS011;49153;45.568;11.894;2023-01-09T03:33:47;5.95;;;3.85;;
57858;SDS011;49153;45.568;11.894;2023-01-09T03:36:14;5.18;;;3.33;;
57858;SDS011;49153;45.568;11.894;2023-01-09T03:38:40;6.60;;;3.70;;
57858;SDS011;49153;45.568;11.894;2023-01-09T03:41:06;4.93;;;3.20;;
57858;SDS011;49153;45.568;11.894;2023-01-09T03:43:32;8.27;;;3.50;;
57858;SDS011;49153;45.568;11.894;2023-01-09T03:45:58;4.07;;;3.00;;
57858;SDS011;49153;45.568;11.894;2023-01-09T03:48:23;4.78;;;3.30;;
57858;SDS011;49153;45.568;11.894;2023-01-09T03:50:50;5.72;;;3.13;;
57858;SDS011;49153;45.568;11.894;2023-01-09T03:53:17;6.00;;;3.42;;
57858;SDS011;49153;45.568;11.894;2023-01-09T03:55:47;3.85;;;2.97;;
57858;SDS011;49153;45.568;11.894;2023-01-09T03:58:14;4.25;;;3.00;;
57858;SDS011;49153;45.568;11.894;2023-01-09T04:00:41;5.13;;;3.05;;
57858;SDS011;49153;45.568;11.894;2023-01-09T04:03:09;4.20;;;2.70;;
57858;SDS011;49153;45.568;11.894;2023-01-09T04:05:35;3.97;;;2.83;;
57858;SDS011;49153;45.568;11.894;2023-01-09T04:08:00;4.72;;;3.15;;
57858;SDS011;49153;45.568;11.894;2023-01-09T04:10:26;4.03;;;2.92;;
57858;SDS011;49153;45.568;11.894;2023-01-09T04:12:52;4.93;;;2.67;;
57858;SDS011;49153;45.568;11.894;2023-01-09T04:15:17;3.70;;;2.40;;
57858;SDS011;49153;45.568;11.894;2023-01-09T04:17:43;4.55;;;2.50;;
57858;SDS011;49153;45.568;11.894;2023-01-09T04:20:09;3.45;;;2.30;;
57858;SDS011;49153;45.568;11.894;2023-01-09T04:22:35;2.92;;;2.10;;
57858;SDS011;49153;45.568;11.894;2023-01-09T04:25:00;3.63;;;2.17;;
57858;SDS011;49153;45.568;11.894;2023-01-09T04:27:26;2.78;;;1.85;;
57858;SDS011;49153;45.568;11.894;2023-01-09T04:29:51;1.85;;;1.50;;
57858;SDS011;49153;45.568;11.894;2023-01-09T04:32:16;1.92;;;1.58;;
57858;SDS011;49153;45.568;11.894;2023-01-09T04:34:42;1.92;;;1.50;;
57858;SDS011;49153;45.568;11.894;2023-01-09T04:37:07;1.92;;;1.40;;
57858;SDS011;49153;45.568;11.894;2023-01-09T04:39:33;2.08;;;1.45;;
57858;SDS011;49153;45.568;11.894;2023-01-09T04:41:58;1.42;;;1.30;;
57858;SDS011;49153;45.568;11.894;2023-01-09T04:44:24;2.20;;;1.27;;
57858;SDS011;49153;45.568;11.894;2023-01-09T04:46:50;1.45;;;1.13;;
57858;SDS011;49153;45.568;11.894;2023-01-09T04:49:16;1.42;;;1.30;;
57858;SDS011;49153;45.568;11.894;2023-01-09T04:51:42;1.33;;;1.23;;
57858;SDS011;49153;45.568;11.894;2023-01-09T04:54:07;1.98;;;1.30;;
57858;SDS011;49153;45.568;11.894;2023-01-09T04:56:33;1.85;;;1.20;;
57858;SDS011;49153;45.568;11.894;2023-01-09T04:58:59;1.20;;;1.10;;
57858;SDS011;49153;45.568;11.894;2023-01-09T05:01:24;1.40;;;1.20;;
57858;SDS011;49153;45.568;11.894;2023-01-09T05:03:49;1.48;;;1.10;;
57858;SDS011;49153;45.568;11.894;2023-01-09T05:06:15;1.63;;;1.10;;
57858;SDS011;49153;45.568;11.894;2023-01-09T05:08:41;1.70;;;1.00;;
57858;SDS011;49153;45.568;11.894;2023-01-09T05:11:06;1.30;;;1.20;;
57858;SDS011;49153;45.568;11.894;2023-01-09T05:13:32;2.25;;;1.38;;
57858;SDS011;49153;45.568;11.894;2023-01-09T05:15:57;1.77;;;1.50;;
57858;SDS011;49153;45.568;11.894;2023-01-09T05:18:22;4.15;;;1.60;;
57858;SDS011;49153;45.568;11.894;2023-01-09T05:20:48;2.33;;;1.60;;
57858;SDS011;49153;45.568;11.894;2023-01-09T05:23:14;2.22;;;1.67;;
57858;SDS011;49153;45.568;11.894;2023-01-09T05:25:39;2.03;;;1.60;;
57858;SDS011;49153;45.568;11.894;2023-01-09T05:28:05;2.42;;;1.60;;
57858;SDS011;49153;45.568;11.894;2023-01-09T05:30:30;2.67;;;1.80;;
57858;SDS011;49153;45.568;11.894;2023-01-09T05:32:56;2.50;;;1.70;;
57858;SDS011;49153;45.568;11.894;2023-01-09T05:35:21;2.05;;;1.52;;
57858;SDS011;49153;45.568;11.894;2023-01-09T05:37:46;1.58;;;1.45;;
57858;SDS011;49153;45.568;11.894;2023-01-09T05:40:12;2.28;;;1.45;;
57858;SDS011;49153;45.568;11.894;2023-01-09T05:42:38;2.38;;;1.80;;
57858;SDS011;49153;45.568;11.894;2023-01-09T05:45:04;3.55;;;2.30;;
57858;SDS011;49153;45.568;11.894;2023-01-09T05:47:30;2.53;;;1.88;;
57858;SDS011;49153;45.568;11.894;2023-01-09T05:49:55;3.08;;;1.75;;
57858;SDS011;49153;45.568;11.894;2023-01-09T05:52:22;3.13;;;1.80;;
57858;SDS011;49153;45.568;11.894;2023-01-09T05:54:47;2.47;;;1.90;;
57858;SDS011;49153;45.568;11.894;2023-01-09T05:57:13;2.70;;;1.90;;
57858;SDS011;49153;45.568;11.894;2023-01-09T05:59:38;2.53;;;1.80;;
57858;SDS011;49153;45.568;11.894;2023-01-09T06:02:04;3.10;;;1.88;;
57858;SDS011;49153;45.568;11.894;2023-01-09T06:04:29;3.22;;;1.92;;
57858;SDS011;49153;45.568;11.894;2023-01-09T06:06:55;2.60;;;1.83;;
57858;SDS011;49153;45.568;11.894;2023-01-09T06:09:20;2.00;;;1.63;;
57858;SDS011;49153;45.568;11.894;2023-01-09T06:11:46;2.42;;;1.70;;
57858;SDS011;49153;45.568;11.894;2023-01-09T06:14:11;2.85;;;2.10;;
57858;SDS011;49153;45.568;11.894;2023-01-09T06:16:37;3.60;;;2.40;;
57858;SDS011;49153;45.568;11.894;2023-01-09T06:19:02;2.88;;;2.10;;
57858;SDS011;49153;45.568;11.894;2023-01-09T06:21:29;2.40;;;2.20;;
57858;SDS011;49153;45.568;11.894;2023-01-09T06:23:56;2.90;;;2.60;;
57858;SDS011;49153;45.568;11.894;2023-01-09T06:26:21;4.95;;;3.03;;
57858;SDS011;49153;45.568;11.894;2023-01-09T06:28:47;4.55;;;3.53;;
57858;SDS011;49153;45.568;11.894;2023-01-09T06:31:12;3.78;;;3.33;;
57858;SDS011;49153;45.568;11.894;2023-01-09T06:33:38;3.35;;;2.75;;
57858;SDS011;49153;45.568;11.894;2023-01-09T06:36:03;3.47;;;2.28;;
57858;SDS011;49153;45.568;11.894;2023-01-09T06:38:29;3.13;;;2.28;;
57858;SDS011;49153;45.568;11.894;2023-01-09T06:40:55;3.42;;;2.30;;
57858;SDS011;49153;45.568;11.894;2023-01-09T06:43:20;2.88;;;2.53;;
57858;SDS011;49153;45.568;11.894;2023-01-09T06:45:46;3.70;;;2.47;;
57858;SDS011;49153;45.568;11.894;2023-01-09T06:48:12;3.33;;;2.50;;
57858;SDS011;49153;45.568;11.894;2023-01-09T06:50:37;3.30;;;2.42;;
57858;SDS011;49153;45.568;11.894;2023-01-09T06:53:03;2.75;;;2.10;;
57858;SDS011;49153;45.568;11.894;2023-01-09T06:55:28;5.13;;;1.92;;
57858;SDS011;49153;45.568;11.894;2023-01-09T06:57:54;2.28;;;1.90;;
57858;SDS011;49153;45.568;11.894;2023-01-09T07:00:19;2.30;;;1.98;;
57858;SDS011;49153;45.568;11.894;2023-01-09T07:02:45;4.32;;;2.78;;
57858;SDS011;49153;45.568;11.894;2023-01-09T07:05:10;3.88;;;2.78;;
57858;SDS011;49153;45.568;11.894;2023-01-09T07:07:36;3.55;;;2.70;;
57858;SDS011;49153;45.568;11.894;2023-01-09T07:10:03;3.47;;;2.90;;
57858;SDS011;49153;45.568;11.894;2023-01-09T07:12:29;5.47;;;3.40;;
57858;SDS011;49153;45.568;11.894;2023-01-09T07:14:54;4.38;;;3.45;;
57858;SDS011;49153;45.568;11.894;2023-01-09T07:17:20;4.38;;;3.55;;
57858;SDS011;49153;45.568;11.894;2023-01-09T07:19:45;3.65;;;3.15;;
57858;SDS011;49153;45.568;11.894;2023-01-09T07:22:11;3.42;;;2.92;;
57858;SDS011;49153;45.568;11.894;2023-01-09T07:24:36;4.35;;;3.20;;
57858;SDS011;49153;45.568;11.894;2023-01-09T07:27:02;5.57;;;3.42;;
57858;SDS011;49153;45.568;11.894;2023-01-09T07:29:28;4.70;;;3.45;;
57858;SDS011;49153;45.568;11.894;2023-01-09T07:31:53;4.32;;;3.20;;
57858;SDS011;49153;45.568;11.894;2023-01-09T07:34:19;4.00;;;3.10;;
57858;SDS011;49153;45.568;11.894;2023-01-09T07:36:44;4.22;;;3.03;;
57858;SDS011;49153;45.568;11.894;2023-01-09T07:39:11;3.20;;;2.65;;
57858;SDS011;49153;45.568;11.894;2023-01-09T07:41:37;4.00;;;3.03;;
57858;SDS011;49153;45.568;11.894;2023-01-09T07:44:03;5.00;;;3.30;;
57858;SDS011;49153;45.568;11.894;2023-01-09T07:46:28;6.45;;;3.13;;
57858;SDS011;49153;45.568;11.894;2023-01-09T07:48:54;4.82;;;3.28;;
57858;SDS011;49153;45.568;11.894;2023-01-09T07:51:20;4.70;;;3.22;;
57858;SDS011;49153;45.568;11.894;2023-01-09T07:53:46;6.05;;;3.47;;
57858;SDS011;49153;45.568;11.894;2023-01-09T07:56:11;4.35;;;3.20;;
57858;SDS011;49153;45.568;11.894;2023-01-09T07:58:36;5.13;;;3.67;;
57858;SDS011;49153;45.568;11.894;2023-01-09T08:01:02;4.47;;;3.08;;
57858;SDS011;49153;45.568;11.894;2023-01-09T08:03:28;3.85;;;3.00;;
57858;SDS011;49153;45.568;11.894;2023-01-09T08:05:54;4.93;;;3.38;;
57858;SDS011;49153;45.568;11.894;2023-01-09T08:08:19;5.70;;;3.53;;
57858;SDS011;49153;45.568;11.894;2023-01-09T08:10:44;5.65;;;3.60;;
57858;SDS011;49153;45.568;11.894;2023-01-09T08:13:10;4.90;;;3.33;;
57858;SDS011;49153;45.568;11.894;2023-01-09T08:15:35;5.18;;;3.20;;
57858;SDS011;49153;45.568;11.894;2023-01-09T08:18:01;5.10;;;3.05;;
57858;SDS011;49153;45.568;11.894;2023-01-09T08:20:26;4.15;;;3.08;;
57858;SDS011;49153;45.568;11.894;2023-01-09T08:22:52;4.65;;;3.10;;
57858;SDS011;49153;45.568;11.894;2023-01-09T08:25:18;4.40;;;3.10;;
57858;SDS011;49153;45.568;11.894;2023-01-09T08:27:44;5.70;;;3.33;;
57858;SDS011;49153;45.568;11.894;2023-01-09T08:30:10;4.28;;;3.10;;
57858;SDS011;49153;45.568;11.894;2023-01-09T08:32:36;4.30;;;3.50;;
57858;SDS011;49153;45.568;11.894;2023-01-09T08:35:02;5.03;;;3.33;;
57858;SDS011;49153;45.568;11.894;2023-01-09T08:37:28;6.00;;;4.40;;
57858;SDS011;49153;45.568;11.894;2023-01-09T08:39:54;6.65;;;5.07;;
57858;SDS011;49153;45.568;11.894;2023-01-09T08:42:20;7.82;;;5.15;;
57858;SDS011;49153;45.568;11.894;2023-01-09T08:45:04;7.55;;;4.97;;
57858;SDS011;49153;45.568;11.894;2023-01-09T08:47:49;9.65;;;7.05;;
57858;SDS011;49153;45.568;11.894;2023-01-09T08:50:14;11.25;;;8.48;;
57858;SDS011;49153;45.568;11.894;2023-01-09T08:52:40;11.57;;;8.82;;
57858;SDS011;49153;45.568;11.894;2023-01-09T08:55:05;10.73;;;8.18;;
57858;SDS011;49153;45.568;11.894;2023-01-09T08:57:31;9.55;;;7.07;;
57858;SDS011;49153;45.568;11.894;2023-01-09T08:59:57;12.60;;;7.55;;
57858;SDS011;49153;45.568;11.894;2023-01-09T09:02:22;10.07;;;7.50;;
57858;SDS011;49153;45.568;11.894;2023-01-09T09:04:48;8.38;;;6.43;;
57858;SDS011;49153;45.568;11.894;2023-01-09T09:07:17;9.50;;;6.30;;
57858;SDS011;49153;45.568;11.894;2023-01-09T09:09:50;8.15;;;6.13;;
57858;SDS011;49153;45.568;11.894;2023-01-09T09:12:18;9.27;;;6.68;;
57858;SDS011;49153;45.568;11.894;2023-01-09T09:14:44;11.30;;;6.88;;
57858;SDS011;49153;45.568;11.894;2023-01-09T09:17:29;8.50;;;6.72;;
57858;SDS011;49153;45.568;11.894;2023-01-09T09:19:56;8.48;;;6.15;;
57858;SDS011;49153;45.568;11.894;2023-01-09T09:22:22;7.95;;;4.75;;
57858;SDS011;49153;45.568;11.894;2023-01-09T09:24:47;5.88;;;4.75;;
57858;SDS011;49153;45.568;11.894;2023-01-09T09:27:12;5.40;;;4.15;;
57858;SDS011;49153;45.568;11.894;2023-01-09T09:29:38;5.97;;;4.15;;
57858;SDS011;49153;45.568;11.894;2023-01-09T09:32:03;4.88;;;3.70;;
57858;SDS011;49153;45.568;11.894;2023-01-09T09:34:29;6.55;;;4.30;;
57858;SDS011;49153;45.568;11.894;2023-01-09T09:36:54;6.97;;;3.78;;
57858;SDS011;49153;45.568;11.894;2023-01-09T09:39:20;5.78;;;3.75;;
57858;SDS011;49153;45.568;11.894;2023-01-09T09:56:19;5.43;;;3.50;;
57858;SDS011;49153;45.568;11.894;2023-01-09T09:58:48;4.40;;;3.30;;
57858;SDS011;49153;45.568;11.894;2023-01-09T10:01:19;5.07;;;3.70;;
57858;SDS011;49153;45.568;11.894;2023-01-09T10:03:52;8.57;;;3.70;;
57858;SDS011;49153;45.568;11.894;2023-01-09T10:06:26;5.72;;;3.65;;
57858;SDS011;49153;45.568;11.894;2023-01-09T10:09:02;5.03;;;4.22;;
57858;SDS011;49153;45.568;11.894;2023-01-09T10:14:41;5.53;;;4.15;;
57858;SDS011;49153;45.568;11.894;2023-01-09T10:28:15;6.10;;;3.00;;
57858;SDS011;49153;45.568;11.894;2023-01-09T10:30:58;5.20;;;3.50;;
57858;SDS011;49153;45.568;11.894;2023-01-09T10:33:50;6.95;;;4.03;;
57858;SDS011;49153;45.568;11.894;2023-01-09T10:39:11;5.15;;;3.72;;
57858;SDS011;49153;45.568;11.894;2023-01-09T10:41:54;5.70;;;3.50;;
57858;SDS011;49153;45.568;11.894;2023-01-09T10:44:27;5.28;;;3.75;;
57858;SDS011;49153;45.568;11.894;2023-01-09T10:47:10;5.65;;;3.40;;
57858;SDS011;49153;45.568;11.894;2023-01-09T10:49:40;5.43;;;3.38;;
57858;SDS011;49153;45.568;11.894;2023-01-09T10:54:40;5.40;;;3.88;;
57858;SDS011;49153;45.568;11.894;2023-01-09T10:57:29;5.30;;;3.67;;
57858;SDS011;49153;45.568;11.894;2023-01-09T11:00:03;5.13;;;3.47;;
57858;SDS011;49153;45.568;11.894;2023-01-09T11:02:30;5.78;;;4.03;;
57858;SDS011;49153;45.568;11.894;2023-01-09T11:04:57;8.48;;;4.72;;
57858;SDS011;49153;45.568;11.894;2023-01-09T11:07:30;4.78;;;3.45;;
57858;SDS011;49153;45.568;11.894;2023-01-09T11:10:04;5.47;;;3.60;;
57858;SDS011;49153;45.568;11.894;2023-01-09T11:12:33;5.05;;;3.60;;
57858;SDS011;49153;45.568;11.894;2023-01-09T11:17:41;5.75;;;4.35;;
57858;SDS011;49153;45.568;11.894;2023-01-09T11:20:22;4.63;;;3.70;;
57858;SDS011;49153;45.568;11.894;2023-01-09T11:22:51;5.60;;;4.00;;
57858;SDS011;49153;45.568;11.894;2023-01-09T11:25:22;4.97;;;4.15;;
57858;SDS011;49153;45.568;11.894;2023-01-09T11:28:23;6.00;;;4.78;;
57858;SDS011;49153;45.568;11.894;2023-01-09T11:30:55;8.27;;;6.05;;
57858;SDS011;49153;45.568;11.894;2023-01-09T11:33:29;8.48;;;5.30;;
57858;SDS011;49153;45.568;11.894;2023-01-09T11:36:05;8.55;;;6.00;;
57858;SDS011;49153;45.568;11.894;2023-01-09T11:38:49;7.88;;;5.90;;
57858;SDS011;49153;45.568;11.894;2023-01-09T11:41:19;7.13;;;5.30;;
57858;SDS011;49153;45.568;11.894;2023-01-09T11:43:47;10.35;;;6.50;;
57858;SDS011;49153;45.568;11.894;2023-01-09T11:49:05;9.77;;;6.22;;
57858;SDS011;49153;45.568;11.894;2023-01-09T11:51:43;9.40;;;6.45;;
57858;SDS011;49153;45.568;11.894;2023-01-09T11:54:28;9.25;;;6.43;;
57858;SDS011;49153;45.568;11.894;2023-01-09T11:56:58;8.75;;;6.18;;
57858;SDS011;49153;45.568;11.894;2023-01-09T11:59:25;8.63;;;6.53;;
57858;SDS011;49153;45.568;11.894;2023-01-09T12:04:38;11.15;;;7.55;;
57858;SDS011;49153;45.568;11.894;2023-01-09T12:09:56;8.50;;;6.53;;
57858;SDS011;49153;45.568;11.894;2023-01-09T12:24:30;8.93;;;6.45;;
57858;SDS011;49153;45.568;11.894;2023-01-09T12:30:17;9.88;;;7.43;;
57858;SDS011;49153;45.568;11.894;2023-01-09T12:35:38;10.07;;;6.95;;
57858;SDS011;49153;45.568;11.894;2023-01-09T12:46:20;12.90;;;8.18;;
57858;SDS011;49153;45.568;11.894;2023-01-09T12:51:47;11.17;;;7.37;;
57858;SDS011;49153;45.568;11.894;2023-01-09T12:56:53;10.02;;;6.78;;
57858;SDS011;49153;45.568;11.894;2023-01-09T12:59:29;8.80;;;6.03;;
57858;SDS011;49153;45.568;11.894;2023-01-09T13:02:14;9.15;;;6.45;;
57858;SDS011;49153;45.568;11.894;2023-01-09T13:04:51;10.55;;;6.80;;
57858;SDS011;49153;45.568;11.894;2023-01-09T13:07:23;8.95;;;5.85;;
57858;SDS011;49153;45.568;11.894;2023-01-09T13:10:01;7.95;;;5.53;;
57858;SDS011;49153;45.568;11.894;2023-01-09T13:12:34;8.27;;;5.25;;
57858;SDS011;49153;45.568;11.894;2023-01-09T13:15:04;9.43;;;5.72;;
57858;SDS011;49153;45.568;11.894;2023-01-09T13:20:55;8.65;;;5.70;;
57858;SDS011;49153;45.568;11.894;2023-01-09T13:23:29;7.72;;;5.68;;
57858;SDS011;49153;45.568;11.894;2023-01-09T13:28:53;7.30;;;5.30;;
57858;SDS011;49153;45.568;11.894;2023-01-09T13:34:29;9.27;;;5.68;;
57858;SDS011;49153;45.568;11.894;2023-01-09T13:36:58;8.85;;;5.93;;
57858;SDS011;49153;45.568;11.894;2023-01-09T13:39:25;6.72;;;4.80;;
57858;SDS011;49153;45.568;11.894;2023-01-09T13:41:56;7.43;;;5.65;;
57858;SDS011;49153;45.568;11.894;2023-01-09T13:44:42;9.23;;;6.43;;
57858;SDS011;49153;45.568;11.894;2023-01-09T13:47:18;8.23;;;5.93;;
57858;SDS011;49153;45.568;11.894;2023-01-09T13:59:50;8.45;;;6.10;;
57858;SDS011;49153;45.568;11.894;2023-01-09T14:05:11;8.07;;;4.97;;
57858;SDS011;49153;45.568;11.894;2023-01-09T14:07:43;8.63;;;4.85;;
57858;SDS011;49153;45.568;11.894;2023-01-09T14:12:48;7.80;;;5.00;;
57858;SDS011;49153;45.568;11.894;2023-01-09T14:15:23;7.88;;;5.50;;
57858;SDS011;49153;45.568;11.894;2023-01-09T14:18:06;6.75;;;4.90;;
57858;SDS011;49153;45.568;11.894;2023-01-09T14:20:54;7.75;;;5.38;;
57858;SDS011;49153;45.568;11.894;2023-01-09T14:23:27;9.48;;;5.30;;
57858;SDS011;49153;45.568;11.894;2023-01-09T14:25:56;9.25;;;4.75;;
57858;SDS011;49153;45.568;11.894;2023-01-09T14:35:47;10.02;;;5.65;;
57858;SDS011;49153;45.568;11.894;2023-01-09T14:46:22;9.63;;;6.38;;
57858;SDS011;49153;45.568;11.894;2023-01-09T14:49:36;8.80;;;5.63;;
57858;SDS011;49153;45.568;11.894;2023-01-09T14:51:52;10.88;;;5.95;;
57858;SDS011;49153;45.568;11.894;2023-01-09T14:54:24;8.30;;;5.25;;
57858;SDS011;49153;45.568;11.894;2023-01-09T14:56:54;12.57;;;5.63;;
57858;SDS011;49153;45.568;11.894;2023-01-09T14:59:20;8.75;;;5.75;;
57858;SDS011;49153;45.568;11.894;2023-01-09T15:01:46;9.35;;;5.97;;
57858;SDS011;49153;45.568;11.894;2023-01-09T15:04:25;13.73;;;9.27;;
57858;SDS011;49153;45.568;11.894;2023-01-09T15:06:51;10.45;;;6.65;;
57858;SDS011;49153;45.568;11.894;2023-01-09T15:11:55;9.98;;;6.82;;
57858;SDS011;49153;45.568;11.894;2023-01-09T15:14:30;10.10;;;7.25;;
57858;SDS011;49153;45.568;11.894;2023-01-09T15:17:00;9.85;;;6.90;;
57858;SDS011;49153;45.568;11.894;2023-01-09T15:19:26;10.98;;;6.90;;
57858;SDS011;49153;45.568;11.894;2023-01-09T15:21:57;11.07;;;7.03;;
57858;SDS011;49153;45.568;11.894;2023-01-09T15:24:23;11.30;;;6.75;;
57858;SDS011;49153;45.568;11.894;2023-01-09T15:26:54;10.25;;;7.03;;
57858;SDS011;49153;45.568;11.894;2023-01-09T15:29:22;8.63;;;5.93;;
57858;SDS011;49153;45.568;11.894;2023-01-09T15:31:49;9.35;;;6.03;;
57858;SDS011;49153;45.568;11.894;2023-01-09T15:34:19;9.30;;;6.40;;
57858;SDS011;49153;45.568;11.894;2023-01-09T15:36:47;10.68;;;6.80;;
57858;SDS011;49153;45.568;11.894;2023-01-09T15:39:24;7.53;;;5.47;;
57858;SDS011;49153;45.568;11.894;2023-01-09T15:41:55;8.88;;;6.32;;
57858;SDS011;49153;45.568;11.894;2023-01-09T15:44:41;9.95;;;6.50;;
57858;SDS011;49153;45.568;11.894;2023-01-09T15:47:14;9.23;;;6.75;;
57858;SDS011;49153;45.568;11.894;2023-01-09T15:49:44;9.25;;;6.43;;
57858;SDS011;49153;45.568;11.894;2023-01-09T15:52:14;9.25;;;6.88;;
57858;SDS011;49153;45.568;11.894;2023-01-09T15:54:41;10.30;;;6.80;;
57858;SDS011;49153;45.568;11.894;2023-01-09T15:59:53;11.30;;;6.97;;
57858;SDS011;49153;45.568;11.894;2023-01-09T16:02:21;10.70;;;8.40;;
57858;SDS011;49153;45.568;11.894;2023-01-09T16:05:07;10.57;;;7.45;;
57858;SDS011;49153;45.568;11.894;2023-01-09T16:07:43;11.32;;;7.10;;
57858;SDS011;49153;45.568;11.894;2023-01-09T16:10:47;8.98;;;6.30;;
57858;SDS011;49153;45.568;11.894;2023-01-09T16:13:03;7.70;;;5.63;;
57858;SDS011;49153;45.568;11.894;2023-01-09T16:15:32;6.35;;;4.50;;
57858;SDS011;49153;45.568;11.894;2023-01-09T16:20:31;5.40;;;3.85;;
57858;SDS011;49153;45.568;11.894;2023-01-09T16:22:56;5.13;;;3.15;;
57858;SDS011;49153;45.568;11.894;2023-01-09T16:25:31;4.13;;;2.92;;
57858;SDS011;49153;45.568;11.894;2023-01-09T16:28:17;4.68;;;3.05;;
57858;SDS011;49153;45.568;11.894;2023-01-09T16:30:58;3.90;;;2.50;;
57858;SDS011;49153;45.568;11.894;2023-01-09T16:33:28;2.92;;;2.20;;
57858;SDS011;49153;45.568;11.894;2023-01-09T16:35:54;2.63;;;2.03;;
57858;SDS011;49153;45.568;11.894;2023-01-09T16:38:22;2.33;;;1.90;;
57858;SDS011;49153;45.568;11.894;2023-01-09T16:43:50;1.80;;;1.30;;
57858;SDS011;49153;45.568;11.894;2023-01-09T16:46:16;1.70;;;1.17;;
57858;SDS011;49153;45.568;11.894;2023-01-09T16:48:44;2.97;;;1.20;;
57858;SDS011;49153;45.568;11.894;2023-01-09T16:51:17;2.10;;;1.20;;
57858;SDS011;49153;45.568;11.894;2023-01-09T16:53:45;1.45;;;0.93;;
57858;SDS011;49153;45.568;11.894;2023-01-09T16:56:24;2.95;;;1.13;;
57858;SDS011;49153;45.568;11.894;2023-01-09T16:58:51;2.10;;;1.10;;
57858;SDS011;49153;45.568;11.894;2023-01-09T17:01:20;1.60;;;1.10;;
57858;SDS011;49153;45.568;11.894;2023-01-09T17:03:46;1.38;;;0.90;;
57858;SDS011;49153;45.568;11.894;2023-01-09T17:06:28;1.60;;;1.02;;
57858;SDS011;49153;45.568;11.894;2023-01-09T17:08:56;2.00;;;1.50;;
57858;SDS011;49153;45.568;11.894;2023-01-09T17:11:26;1.65;;;1.30;;
57858;SDS011;49153;45.568;11.894;2023-01-09T17:13:58;2.08;;;1.40;;
57858;SDS011;49153;45.568;11.894;2023-01-09T17:16:25;2.13;;;1.42;;
57858;SDS011;49153;45.568;11.894;2023-01-09T17:18:52;2.78;;;1.60;;
57858;SDS011;49153;45.568;11.894;2023-01-09T17:21:21;2.22;;;1.40;;
57858;SDS011;49153;45.568;11.894;2023-01-09T17:23:48;2.20;;;1.48;;